Подпольное

Карта отелей и гостиниц, располагающихся рядом с аэропортом Подпольное :

Подпольное Воронежская область 51° 39' 21.6" N, 39° 2' 55.2588" E
Код аэродрома ИКАО
H349
Код аэродрома RU
Х349
Координаты
N51.65600° E039.04868°
Превышение над уровнем моря
149
Основная полоса
Курс магнитный
Длина основной ВПП
Ширина основной ВПП
Покрытие основной ВПП
Освещение ВПП
Тип: 
Вертодром
Класс аэродрома: 
Принадлежность: 
МО
Статус: 
Действующий
Сайт: 
E-mail аэродрома: 
Страна: 
Россия
Регион: 
Воронежская область
Город: 
Дополнительная информация: 
Владелец ПП: нет данных.

Найти трансфер

С помощью этой формы Вы можете найти трансфер из аэропорта Подпольное в город, аэропорт или вокзал:

Карта места

Javascript is required to view this map.

Погода в аэропортах:

Авиационная погода в Игнатьево

Регион: 
Погода METAR: 
UHBB 281000Z 25002MPS 9999 -SHSN SCT033CB M11/M14 Q1022 R36/821060 NOSIG RMK QFE749/0999
Время наблюдения
2021-11-28T10:00:00Z
Температура C
-11.0
Точка росы
-14.0
Направление ветра
250
Скорость ветра (узлы)
4
Метео видимость
6.21
Явления погоды
-SHSN
Условия полета
VFR
Аэропорт подробнее: 

Авиационная погода в Бресте

Регион: 
Погода METAR: 
UMBB 281100Z 07003MPS 5000 BR OVC040 02/01 Q0999 NOSIG
Время наблюдения
2021-11-28T11:00:00Z
Температура C
2.0
Точка росы
1.0
Направление ветра
70
Скорость ветра (узлы)
6
Метео видимость
3.11
Явления погоды
BR
Условия полета
MVFR
Аэропорт подробнее: 

Авиационная погода в Липецке

Регион: 
Погода METAR: 
UUOL 281000Z 20004MPS 1700 R15/1500D BR OVC003 05/05 Q1008 R15/290050 NOSIG RMK QBB100
Время наблюдения
2021-11-28T10:00:00Z
Температура C
5.0
Точка росы
5.0
Направление ветра
200
Скорость ветра (узлы)
8
Метео видимость
1.06
Явления погоды
BR
Условия полета
LIFR
Аэропорт подробнее: 

Авиационная погода в Толмачево

Регион: 
Погода METAR: 
UNNT 281000Z 22005MPS 9999 DRSN OVC016 M06/M09 Q1032 R25/810250 R16/421040 NOSIG RMK QFE764/1019
Время наблюдения
2021-11-28T10:00:00Z
Температура C
-6.0
Точка росы
-9.0
Направление ветра
220
Скорость ветра (узлы)
10
Метео видимость
6.21
Явления погоды
DRSN
Условия полета
MVFR
Аэропорт подробнее: